Meath Environmental Platform

Observations for Trim Market St

Time AQI Temp °C Hum % Pres Pa CO μg/m³ H₂S μg/m³ NO μg/m³ NO₂ μg/m³ O₃ μg/m³ SO₂ μg/m³ PM1 μg/m³ PM2.5 μg/m³ PM10 μg/m³
Wednesday 26 August 2026
17:20 2 30.3 42 65,853 0 0 1.5 23.26 86.15 0 4.28 7.53 9.11
17:17 2 30.4 42 65,847 0 0 1.34 20.4 100.89 0 4.28 7.53 9.11
17:13 2 30.4 42 65,813 0 0 1.36 24.2 107.35 0 2.85 5.96 6.73
17:10 2 30.4 43 65,839 0 0 1.32 23.35 103.3 0 9.98 12.22 17.79
17:09 2 30.3 43 65,811 0 0 1.29 22.83 91.51 0 4.28 6.96 9.1
17:02 2 30 42 65,823 0 0 1.42 25.89 109.89 0 2.85 5.93 7.53
17:01 2 29.9 42 65,825 0 0 1.42 19.56 114.26 0 3.56 6.98 9.11
17:00 2 30 42 65,823 0 0 1.41 22.32 110.29 0 3.56 6.99 8.32
16:59 2 30 42 65,827 0 0 1.42 24.43 109.22 0 4.28 7.52 9.11
16:58 2 30.1 42 65,858 0 0 1.46 28.08 100.16 0 4.28 8.04 10.69
16:57 2 30.1 42 65,872 0 0 1.47 21.78 119.81 0 4.28 8.06 9.91
16:56 2 30.2 42 65,858 0 0 1.51 24.4 104.35 0 3.56 6.49 9.11
16:55 2 30.3 42 65,868 0 0 1.5 24.9 107.23 0 3.56 7.54 9.91
16:54 2 30.4 42 65,853 0 0 1.51 25.31 106.1 0 3.56 6.49 7.53
16:53 2 30.5 42 65,858 0 0 1.43 22.73 94.71 0 3.56 7.01 9.11
16:52 2 30.6 42 65,866 0 0 1.34 24.23 123.89 0 3.56 5.96 6.73
16:51 2 30.6 42 65,872 0 0 1.26 24.41 128.97 0 2.85 5.44 6.73
16:50 2 30.6 42 65,853 0 0 1.24 23.37 129.66 0 4.28 7.55 9.12
16:49 2 30.6 42 65,855 0 0 1.25 24.59 109.97 0 2.85 5.45 6.73
16:47 2 30.5 42 65,829 0 0 1.31 23.39 134.14 0 3.56 6.49 7.53